Detall de PIREP

Printer-friendly versionPDF version

[2014/10/16 16:23:00]
Flight IATA:CT3237
Pilot Number:042
Company ICAO:CAT
Aircraft Type:B463/A
PAX:23
Aircraft Registration:PAX
Departing Airport: LKPR
Destination Airport: LEPA
Alternate Airport:LEMH
Online: VATSIM
Route:BALTU UL984 KULOK UZ715 ANELA UN869 MILPA UN852 VERSO UL129 LUNIK
Flight Level:F330
No Slew and time accel
No pause
Crash detect
Detect pilot in Cockpit between each 30 and 45 minutes
16:23 Zero fuel Weight: 80444 Lbs, Fuel Weight: 22753 Lbs
16:23 VATSIM:LKPR 161500Z 22011KT 180V240 9999 FEW030 16/12 Q1008 TEMPO SHRA SCT025CB
16:23 VATSIM:LEPA 161500Z 22012KT 200V260 9999 FEW016 SCT024 25/21 Q1015 NOSIG
16:27 Parking Brakes off
16:32 Take-off
16:32 Take off Weight: 102500 Lbs
16:32 Wind: 222º @ 011 Knots Heading: 242º
16:32 POS N50º 06´ 31´´ E014º 14´ 59´´
16:32 Flaps:2 at 154 Knots
16:32 Gear Up: 151 Knots
16:32 Flaps:1 at 138 Knots
16:33 Flaps:0 at 188 Knots
16:47 Wind:285º@057 Knots Heading: 269º Ground Speed: 317 Knots Altitude 29566 ft
16:49 TOC
16:49 Fuel Weight: 19267 Lb
17:02 Wind:293º@137 Knots Heading: 254º Ground Speed: 316 Knots Altitude 32877 ft
17:17 Wind:290º@122 Knots Heading: 246º Ground Speed: 333 Knots Altitude 32933 ft
17:32 Wind:289º@102 Knots Heading: 221º Ground Speed: 386 Knots Altitude 32936 ft
17:47 Wind:289º@102 Knots Heading: 241º Ground Speed: 352 Knots Altitude 32985 ft
18:02 Wind:280º@082 Knots Heading: 205º Ground Speed: 401 Knots Altitude 32936 ft
18:17 Wind:286º@064 Knots Heading: 219º Ground Speed: 393 Knots Altitude 32926 ft
18:32 Wind:284º@045 Knots Heading: 212º Ground Speed: 399 Knots Altitude 32946 ft
18:39 TOD
18:39 Fuel Weight: 12120 Lb
18:47 Wind:269º@033 Knots Heading: 193º Ground Speed: 312 Knots Altitude 23162 ft
19:01 Flaps:1 at 198 Knots
19:02 Wind:229º@017 Knots Heading: 237º Ground Speed: 167 Knots Altitude 3005 ft
19:02 Flaps:2 at 170 Knots
19:02 Gear Down: 171 Knots
19:02 Flaps:3 at 172 Knots
19:06 TouchDown:Rate -270 ft/min Speed: 124 Knots
19:07 VATSIM:LEPA 161800Z 22009KT 190V270 9999 SCT014 23/20 Q1016 NOSIG
19:07 Land
19:07 Wind:218º@011 Knots
19:07 Heading: 241º
19:07 Flight Duration: 02:35
19:07 Landing Weight: 91656 Lbs
19:07 POS N39º 32´ 51´´ E002º 44´ 43´´
19:09 Parking brakes on
19:09 Block to Block Duration: 02:42
19:09 Final Fuel: 10985 Lbls
19:09 Spent Fuel: 11768 Lbls
19:09 Flight Length: 882 NM
19:09 TOD Land Length: 119 NM

Exportar CSV

Powered by Drupal - Modified by Danger4k